sensor_id;sensor_type;location;lat;lon;timestamp;P1;durP1;ratioP1;P2;durP2;ratioP2
9789;SDS011;4934;50.852;8.098;2024-02-21T00:02:19;20.73;;;6.63;;
9789;SDS011;4934;50.852;8.098;2024-02-21T00:04:44;26.17;;;6.47;;
9789;SDS011;4934;50.852;8.098;2024-02-21T00:07:10;17.35;;;6.03;;
9789;SDS011;4934;50.852;8.098;2024-02-21T00:09:36;20.85;;;6.75;;
9789;SDS011;4934;50.852;8.098;2024-02-21T00:12:01;24.48;;;6.78;;
9789;SDS011;4934;50.852;8.098;2024-02-21T00:14:28;21.15;;;6.22;;
9789;SDS011;4934;50.852;8.098;2024-02-21T00:16:53;19.05;;;6.43;;
9789;SDS011;4934;50.852;8.098;2024-02-21T00:19:19;23.10;;;6.70;;
9789;SDS011;4934;50.852;8.098;2024-02-21T00:21:44;16.63;;;5.82;;
9789;SDS011;4934;50.852;8.098;2024-02-21T00:24:10;23.58;;;6.35;;
9789;SDS011;4934;50.852;8.098;2024-02-21T00:26:35;16.98;;;5.97;;
9789;SDS011;4934;50.852;8.098;2024-02-21T00:29:01;22.85;;;6.07;;
9789;SDS011;4934;50.852;8.098;2024-02-21T00:31:27;23.65;;;5.82;;
9789;SDS011;4934;50.852;8.098;2024-02-21T00:33:52;24.17;;;6.97;;
9789;SDS011;4934;50.852;8.098;2024-02-21T00:36:18;19.23;;;6.57;;
9789;SDS011;4934;50.852;8.098;2024-02-21T00:38:43;22.38;;;5.80;;
9789;SDS011;4934;50.852;8.098;2024-02-21T00:41:09;28.23;;;7.45;;
9789;SDS011;4934;50.852;8.098;2024-02-21T00:43:35;18.75;;;6.10;;
9789;SDS011;4934;50.852;8.098;2024-02-21T00:46:01;21.40;;;7.05;;
9789;SDS011;4934;50.852;8.098;2024-02-21T00:48:26;18.90;;;6.18;;
9789;SDS011;4934;50.852;8.098;2024-02-21T00:50:52;16.17;;;6.15;;
9789;SDS011;4934;50.852;8.098;2024-02-21T00:53:17;16.88;;;6.57;;
9789;SDS011;4934;50.852;8.098;2024-02-21T00:55:43;20.25;;;5.93;;
9789;SDS011;4934;50.852;8.098;2024-02-21T00:58:08;19.38;;;6.57;;
9789;SDS011;4934;50.852;8.098;2024-02-21T01:00:36;17.95;;;6.80;;
9789;SDS011;4934;50.852;8.098;2024-02-21T01:03:02;18.67;;;5.90;;
9789;SDS011;4934;50.852;8.098;2024-02-21T01:05:27;20.10;;;6.00;;
9789;SDS011;4934;50.852;8.098;2024-02-21T01:07:54;20.23;;;7.22;;
9789;SDS011;4934;50.852;8.098;2024-02-21T01:10:20;21.02;;;7.07;;
9789;SDS011;4934;50.852;8.098;2024-02-21T01:12:45;18.40;;;6.25;;
9789;SDS011;4934;50.852;8.098;2024-02-21T01:15:11;23.20;;;6.85;;
9789;SDS011;4934;50.852;8.098;2024-02-21T01:17:36;28.50;;;8.48;;
9789;SDS011;4934;50.852;8.098;2024-02-21T01:20:03;19.13;;;5.90;;
9789;SDS011;4934;50.852;8.098;2024-02-21T01:22:30;20.13;;;7.30;;
9789;SDS011;4934;50.852;8.098;2024-02-21T01:24:56;20.98;;;6.85;;
9789;SDS011;4934;50.852;8.098;2024-02-21T01:27:21;23.17;;;7.28;;
9789;SDS011;4934;50.852;8.098;2024-02-21T01:29:47;17.27;;;6.03;;
9789;SDS011;4934;50.852;8.098;2024-02-21T01:32:14;21.95;;;7.40;;
9789;SDS011;4934;50.852;8.098;2024-02-21T01:34:40;19.80;;;7.03;;
9789;SDS011;4934;50.852;8.098;2024-02-21T01:37:06;26.27;;;6.88;;
9789;SDS011;4934;50.852;8.098;2024-02-21T01:39:32;21.40;;;8.23;;
9789;SDS011;4934;50.852;8.098;2024-02-21T01:41:58;26.02;;;6.47;;
9789;SDS011;4934;50.852;8.098;2024-02-21T01:44:24;17.48;;;7.40;;
9789;SDS011;4934;50.852;8.098;2024-02-21T01:46:50;22.13;;;7.60;;
9789;SDS011;4934;50.852;8.098;2024-02-21T01:49:17;18.27;;;6.65;;
9789;SDS011;4934;50.852;8.098;2024-02-21T01:51:44;24.02;;;6.28;;
9789;SDS011;4934;50.852;8.098;2024-02-21T01:54:10;18.23;;;6.45;;
9789;SDS011;4934;50.852;8.098;2024-02-21T01:56:38;21.10;;;6.78;;
9789;SDS011;4934;50.852;8.098;2024-02-21T01:59:04;18.52;;;6.93;;
9789;SDS011;4934;50.852;8.098;2024-02-21T02:01:29;17.92;;;7.18;;
9789;SDS011;4934;50.852;8.098;2024-02-21T02:03:55;20.50;;;6.18;;
9789;SDS011;4934;50.852;8.098;2024-02-21T02:06:22;22.33;;;6.90;;
9789;SDS011;4934;50.852;8.098;2024-02-21T02:08:47;24.95;;;7.75;;
9789;SDS011;4934;50.852;8.098;2024-02-21T02:11:13;16.65;;;7.05;;
9789;SDS011;4934;50.852;8.098;2024-02-21T02:13:40;27.38;;;7.45;;
9789;SDS011;4934;50.852;8.098;2024-02-21T02:16:05;20.38;;;6.53;;
9789;SDS011;4934;50.852;8.098;2024-02-21T02:18:32;24.70;;;6.93;;
9789;SDS011;4934;50.852;8.098;2024-02-21T02:20:58;15.45;;;5.88;;
9789;SDS011;4934;50.852;8.098;2024-02-21T02:25:56;20.35;;;6.10;;
9789;SDS011;4934;50.852;8.098;2024-02-21T02:28:22;21.83;;;7.40;;
9789;SDS011;4934;50.852;8.098;2024-02-21T02:30:48;15.90;;;7.03;;
9789;SDS011;4934;50.852;8.098;2024-02-21T02:33:14;26.67;;;6.65;;
9789;SDS011;4934;50.852;8.098;2024-02-21T02:35:40;20.85;;;7.88;;
9789;SDS011;4934;50.852;8.098;2024-02-21T02:38:05;20.67;;;6.10;;
9789;SDS011;4934;50.852;8.098;2024-02-21T02:40:33;26.95;;;7.07;;
9789;SDS011;4934;50.852;8.098;2024-02-21T02:42:59;18.95;;;7.20;;
9789;SDS011;4934;50.852;8.098;2024-02-21T02:45:25;25.13;;;6.93;;
9789;SDS011;4934;50.852;8.098;2024-02-21T02:47:54;21.33;;;7.43;;
9789;SDS011;4934;50.852;8.098;2024-02-21T02:50:22;21.25;;;7.10;;
9789;SDS011;4934;50.852;8.098;2024-02-21T02:52:54;19.38;;;6.40;;
9789;SDS011;4934;50.852;8.098;2024-02-21T02:55:20;21.45;;;6.40;;
9789;SDS011;4934;50.852;8.098;2024-02-21T02:57:45;16.67;;;6.55;;
9789;SDS011;4934;50.852;8.098;2024-02-21T03:00:11;17.92;;;6.68;;
9789;SDS011;4934;50.852;8.098;2024-02-21T03:02:38;20.13;;;6.57;;
9789;SDS011;4934;50.852;8.098;2024-02-21T03:05:11;20.70;;;8.80;;
9789;SDS011;4934;50.852;8.098;2024-02-21T03:07:39;15.70;;;6.07;;
9789;SDS011;4934;50.852;8.098;2024-02-21T03:10:04;15.65;;;5.60;;
9789;SDS011;4934;50.852;8.098;2024-02-21T03:12:30;17.08;;;6.47;;
9789;SDS011;4934;50.852;8.098;2024-02-21T03:14:56;19.92;;;6.75;;
9789;SDS011;4934;50.852;8.098;2024-02-21T03:17:21;14.40;;;6.15;;
9789;SDS011;4934;50.852;8.098;2024-02-21T03:19:48;20.52;;;5.95;;
9789;SDS011;4934;50.852;8.098;2024-02-21T03:22:14;16.50;;;6.10;;
9789;SDS011;4934;50.852;8.098;2024-02-21T03:24:41;23.98;;;6.57;;
9789;SDS011;4934;50.852;8.098;2024-02-21T03:27:07;22.45;;;6.32;;
9789;SDS011;4934;50.852;8.098;2024-02-21T03:29:37;19.30;;;6.32;;
9789;SDS011;4934;50.852;8.098;2024-02-21T03:32:03;19.33;;;6.22;;
9789;SDS011;4934;50.852;8.098;2024-02-21T03:34:28;17.27;;;5.68;;
9789;SDS011;4934;50.852;8.098;2024-02-21T03:36:54;21.38;;;6.93;;
9789;SDS011;4934;50.852;8.098;2024-02-21T03:39:19;19.48;;;6.40;;
9789;SDS011;4934;50.852;8.098;2024-02-21T03:41:46;19.67;;;7.35;;
9789;SDS011;4934;50.852;8.098;2024-02-21T03:44:12;16.17;;;5.78;;
9789;SDS011;4934;50.852;8.098;2024-02-21T03:46:37;27.92;;;8.15;;
9789;SDS011;4934;50.852;8.098;2024-02-21T03:49:03;23.63;;;6.18;;
9789;SDS011;4934;50.852;8.098;2024-02-21T03:51:28;21.27;;;6.30;;
9789;SDS011;4934;50.852;8.098;2024-02-21T03:53:54;19.73;;;6.63;;
9789;SDS011;4934;50.852;8.098;2024-02-21T03:56:20;15.55;;;5.47;;
9789;SDS011;4934;50.852;8.098;2024-02-21T03:58:45;21.20;;;6.53;;
9789;SDS011;4934;50.852;8.098;2024-02-21T04:01:11;21.33;;;6.45;;
9789;SDS011;4934;50.852;8.098;2024-02-21T04:03:37;22.13;;;6.88;;
9789;SDS011;4934;50.852;8.098;2024-02-21T04:06:03;17.30;;;6.72;;
9789;SDS011;4934;50.852;8.098;2024-02-21T04:08:29;22.73;;;6.63;;
9789;SDS011;4934;50.852;8.098;2024-02-21T04:10:54;16.85;;;5.75;;
9789;SDS011;4934;50.852;8.098;2024-02-21T04:13:20;18.90;;;6.47;;
9789;SDS011;4934;50.852;8.098;2024-02-21T04:18:35;20.42;;;6.20;;
9789;SDS011;4934;50.852;8.098;2024-02-21T04:21:01;25.85;;;6.20;;
9789;SDS011;4934;50.852;8.098;2024-02-21T04:23:27;17.70;;;4.85;;
9789;SDS011;4934;50.852;8.098;2024-02-21T04:25:52;19.00;;;5.95;;
9789;SDS011;4934;50.852;8.098;2024-02-21T04:28:18;23.08;;;5.93;;
9789;SDS011;4934;50.852;8.098;2024-02-21T04:30:43;19.17;;;5.53;;
9789;SDS011;4934;50.852;8.098;2024-02-21T04:33:09;22.73;;;6.03;;
9789;SDS011;4934;50.852;8.098;2024-02-21T04:35:37;18.48;;;6.15;;
9789;SDS011;4934;50.852;8.098;2024-02-21T04:38:04;17.92;;;5.93;;
9789;SDS011;4934;50.852;8.098;2024-02-21T04:40:35;22.65;;;6.45;;
9789;SDS011;4934;50.852;8.098;2024-02-21T04:43:03;18.20;;;5.72;;
9789;SDS011;4934;50.852;8.098;2024-02-21T04:45:30;15.13;;;5.95;;
9789;SDS011;4934;50.852;8.098;2024-02-21T04:47:55;14.82;;;5.82;;
9789;SDS011;4934;50.852;8.098;2024-02-21T04:50:21;19.25;;;5.70;;
9789;SDS011;4934;50.852;8.098;2024-02-21T04:52:46;21.38;;;5.47;;
9789;SDS011;4934;50.852;8.098;2024-02-21T04:55:12;14.07;;;5.63;;
9789;SDS011;4934;50.852;8.098;2024-02-21T04:57:38;12.85;;;5.35;;
9789;SDS011;4934;50.852;8.098;2024-02-21T05:00:03;19.90;;;5.35;;
9789;SDS011;4934;50.852;8.098;2024-02-21T05:02:30;17.20;;;5.97;;
9789;SDS011;4934;50.852;8.098;2024-02-21T05:04:55;21.75;;;5.82;;
9789;SDS011;4934;50.852;8.098;2024-02-21T05:10:01;18.88;;;5.95;;
9789;SDS011;4934;50.852;8.098;2024-02-21T05:12:26;27.38;;;5.63;;
9789;SDS011;4934;50.852;8.098;2024-02-21T05:14:52;11.70;;;4.82;;
9789;SDS011;4934;50.852;8.098;2024-02-21T05:17:17;14.50;;;5.50;;
9789;SDS011;4934;50.852;8.098;2024-02-21T05:19:43;18.52;;;5.07;;
9789;SDS011;4934;50.852;8.098;2024-02-21T05:22:08;15.23;;;6.80;;
9789;SDS011;4934;50.852;8.098;2024-02-21T05:24:34;16.83;;;6.97;;
9789;SDS011;4934;50.852;8.098;2024-02-21T05:26:59;19.20;;;5.00;;
9789;SDS011;4934;50.852;8.098;2024-02-21T05:29:25;13.65;;;6.30;;
9789;SDS011;4934;50.852;8.098;2024-02-21T05:34:16;16.65;;;5.97;;
9789;SDS011;4934;50.852;8.098;2024-02-21T05:36:42;22.50;;;5.70;;
9789;SDS011;4934;50.852;8.098;2024-02-21T05:39:08;14.30;;;4.85;;
9789;SDS011;4934;50.852;8.098;2024-02-21T05:41:34;21.70;;;5.00;;
9789;SDS011;4934;50.852;8.098;2024-02-21T05:43:59;14.15;;;5.35;;
9789;SDS011;4934;50.852;8.098;2024-02-21T05:46:25;17.98;;;5.72;;
9789;SDS011;4934;50.852;8.098;2024-02-21T05:48:50;23.80;;;5.57;;
9789;SDS011;4934;50.852;8.098;2024-02-21T05:51:16;19.35;;;5.43;;
9789;SDS011;4934;50.852;8.098;2024-02-21T05:53:41;18.60;;;5.07;;
9789;SDS011;4934;50.852;8.098;2024-02-21T05:56:10;15.18;;;5.28;;
9789;SDS011;4934;50.852;8.098;2024-02-21T05:58:37;13.02;;;4.60;;
9789;SDS011;4934;50.852;8.098;2024-02-21T06:01:03;19.52;;;5.18;;
9789;SDS011;4934;50.852;8.098;2024-02-21T06:03:30;15.57;;;5.10;;
9789;SDS011;4934;50.852;8.098;2024-02-21T06:05:55;15.02;;;5.32;;
9789;SDS011;4934;50.852;8.098;2024-02-21T06:08:22;22.65;;;4.85;;
9789;SDS011;4934;50.852;8.098;2024-02-21T06:10:48;11.70;;;4.35;;
9789;SDS011;4934;50.852;8.098;2024-02-21T06:13:15;12.73;;;4.65;;
9789;SDS011;4934;50.852;8.098;2024-02-21T06:15:41;13.80;;;4.55;;
9789;SDS011;4934;50.852;8.098;2024-02-21T06:18:07;26.67;;;5.82;;
9789;SDS011;4934;50.852;8.098;2024-02-21T06:20:38;15.07;;;4.88;;
9789;SDS011;4934;50.852;8.098;2024-02-21T06:23:05;13.27;;;5.20;;
9789;SDS011;4934;50.852;8.098;2024-02-21T06:25:31;17.27;;;5.10;;
9789;SDS011;4934;50.852;8.098;2024-02-21T06:27:57;21.08;;;6.90;;
9789;SDS011;4934;50.852;8.098;2024-02-21T06:30:22;17.58;;;5.45;;
9789;SDS011;4934;50.852;8.098;2024-02-21T06:32:48;23.83;;;4.32;;
9789;SDS011;4934;50.852;8.098;2024-02-21T06:35:14;14.05;;;4.82;;
9789;SDS011;4934;50.852;8.098;2024-02-21T06:37:39;17.00;;;5.22;;
9789;SDS011;4934;50.852;8.098;2024-02-21T06:40:05;14.73;;;4.78;;
9789;SDS011;4934;50.852;8.098;2024-02-21T06:42:31;18.05;;;5.65;;
9789;SDS011;4934;50.852;8.098;2024-02-21T06:44:57;17.17;;;4.85;;
9789;SDS011;4934;50.852;8.098;2024-02-21T06:47:22;18.15;;;5.18;;
9789;SDS011;4934;50.852;8.098;2024-02-21T06:49:48;15.95;;;4.70;;
9789;SDS011;4934;50.852;8.098;2024-02-21T06:52:16;17.10;;;4.95;;
9789;SDS011;4934;50.852;8.098;2024-02-21T06:54:45;17.63;;;5.90;;
9789;SDS011;4934;50.852;8.098;2024-02-21T06:57:13;15.23;;;5.53;;
9789;SDS011;4934;50.852;8.098;2024-02-21T06:59:40;17.77;;;5.53;;
9789;SDS011;4934;50.852;8.098;2024-02-21T07:02:06;19.20;;;5.90;;
9789;SDS011;4934;50.852;8.098;2024-02-21T07:04:32;18.15;;;5.43;;
9789;SDS011;4934;50.852;8.098;2024-02-21T07:06:58;17.85;;;5.30;;
9789;SDS011;4934;50.852;8.098;2024-02-21T07:09:24;18.52;;;5.97;;
9789;SDS011;4934;50.852;8.098;2024-02-21T07:11:49;27.50;;;5.03;;
9789;SDS011;4934;50.852;8.098;2024-02-21T07:14:15;17.38;;;4.95;;
9789;SDS011;4934;50.852;8.098;2024-02-21T07:16:40;15.68;;;5.07;;
9789;SDS011;4934;50.852;8.098;2024-02-21T07:19:06;19.35;;;6.80;;
9789;SDS011;4934;50.852;8.098;2024-02-21T07:21:32;14.25;;;5.05;;
9789;SDS011;4934;50.852;8.098;2024-02-21T07:23:57;18.58;;;5.30;;
9789;SDS011;4934;50.852;8.098;2024-02-21T07:26:23;18.35;;;6.20;;
9789;SDS011;4934;50.852;8.098;2024-02-21T07:28:48;18.48;;;5.90;;
9789;SDS011;4934;50.852;8.098;2024-02-21T07:31:14;17.85;;;4.90;;
9789;SDS011;4934;50.852;8.098;2024-02-21T07:33:40;19.35;;;6.35;;
9789;SDS011;4934;50.852;8.098;2024-02-21T07:36:10;21.55;;;5.60;;
9789;SDS011;4934;50.852;8.098;2024-02-21T07:38:36;13.88;;;5.13;;
9789;SDS011;4934;50.852;8.098;2024-02-21T07:41:02;21.33;;;5.22;;
9789;SDS011;4934;50.852;8.098;2024-02-21T07:43:29;16.20;;;5.30;;
9789;SDS011;4934;50.852;8.098;2024-02-21T07:45:54;18.23;;;5.13;;
9789;SDS011;4934;50.852;8.098;2024-02-21T07:48:20;18.15;;;5.45;;
9789;SDS011;4934;50.852;8.098;2024-02-21T07:50:49;20.38;;;4.93;;
9789;SDS011;4934;50.852;8.098;2024-02-21T07:53:17;15.13;;;5.93;;
9789;SDS011;4934;50.852;8.098;2024-02-21T07:55:44;20.60;;;5.15;;
9789;SDS011;4934;50.852;8.098;2024-02-21T07:58:10;12.10;;;5.03;;
9789;SDS011;4934;50.852;8.098;2024-02-21T08:00:36;11.35;;;4.68;;
9789;SDS011;4934;50.852;8.098;2024-02-21T08:03:04;27.40;;;6.00;;
9789;SDS011;4934;50.852;8.098;2024-02-21T08:05:30;23.27;;;5.47;;
9789;SDS011;4934;50.852;8.098;2024-02-21T08:07:55;19.10;;;5.63;;
9789;SDS011;4934;50.852;8.098;2024-02-21T08:10:21;15.85;;;5.05;;
9789;SDS011;4934;50.852;8.098;2024-02-21T08:12:46;19.38;;;5.78;;
9789;SDS011;4934;50.852;8.098;2024-02-21T08:15:12;28.05;;;6.05;;
9789;SDS011;4934;50.852;8.098;2024-02-21T08:17:37;20.17;;;6.15;;
9789;SDS011;4934;50.852;8.098;2024-02-21T08:20:06;24.45;;;7.05;;
9789;SDS011;4934;50.852;8.098;2024-02-21T08:22:32;24.27;;;5.90;;
9789;SDS011;4934;50.852;8.098;2024-02-21T08:24:58;15.20;;;5.80;;
9789;SDS011;4934;50.852;8.098;2024-02-21T08:27:24;21.95;;;5.60;;
9789;SDS011;4934;50.852;8.098;2024-02-21T08:29:49;19.92;;;7.65;;
9789;SDS011;4934;50.852;8.098;2024-02-21T08:32:15;18.92;;;5.43;;
9789;SDS011;4934;50.852;8.098;2024-02-21T08:34:41;19.60;;;6.20;;
9789;SDS011;4934;50.852;8.098;2024-02-21T08:37:06;21.08;;;6.00;;
9789;SDS011;4934;50.852;8.098;2024-02-21T08:39:33;15.45;;;5.70;;
9789;SDS011;4934;50.852;8.098;2024-02-21T08:41:58;18.48;;;5.45;;
9789;SDS011;4934;50.852;8.098;2024-02-21T08:44:24;23.67;;;6.03;;
9789;SDS011;4934;50.852;8.098;2024-02-21T08:46:53;23.25;;;5.80;;
9789;SDS011;4934;50.852;8.098;2024-02-21T08:49:21;18.70;;;5.88;;
9789;SDS011;4934;50.852;8.098;2024-02-21T08:54:12;17.00;;;5.90;;
9789;SDS011;4934;50.852;8.098;2024-02-21T08:56:38;27.08;;;6.53;;
9789;SDS011;4934;50.852;8.098;2024-02-21T08:59:04;23.42;;;5.82;;
9789;SDS011;4934;50.852;8.098;2024-02-21T09:01:29;18.00;;;5.68;;
9789;SDS011;4934;50.852;8.098;2024-02-21T09:03:55;18.20;;;5.68;;
9789;SDS011;4934;50.852;8.098;2024-02-21T09:06:21;18.88;;;5.97;;
9789;SDS011;4934;50.852;8.098;2024-02-21T09:08:48;20.95;;;6.05;;
9789;SDS011;4934;50.852;8.098;2024-02-21T09:11:14;13.40;;;5.78;;
9789;SDS011;4934;50.852;8.098;2024-02-21T09:13:40;15.27;;;6.28;;
9789;SDS011;4934;50.852;8.098;2024-02-21T09:16:05;24.90;;;6.43;;
9789;SDS011;4934;50.852;8.098;2024-02-21T09:18:31;22.38;;;6.22;;
9789;SDS011;4934;50.852;8.098;2024-02-21T09:20:57;18.65;;;5.80;;
9789;SDS011;4934;50.852;8.098;2024-02-21T09:23:25;18.75;;;5.70;;
9789;SDS011;4934;50.852;8.098;2024-02-21T09:25:51;21.50;;;6.07;;
9789;SDS011;4934;50.852;8.098;2024-02-21T09:28:16;17.70;;;6.13;;
9789;SDS011;4934;50.852;8.098;2024-02-21T09:30:42;21.98;;;6.20;;
9789;SDS011;4934;50.852;8.098;2024-02-21T09:33:08;12.63;;;5.20;;
9789;SDS011;4934;50.852;8.098;2024-02-21T09:35:36;22.73;;;6.10;;
9789;SDS011;4934;50.852;8.098;2024-02-21T09:38:02;18.60;;;5.18;;
9789;SDS011;4934;50.852;8.098;2024-02-21T09:40:28;15.48;;;6.82;;
9789;SDS011;4934;50.852;8.098;2024-02-21T09:43:03;12.60;;;5.43;;
9789;SDS011;4934;50.852;8.098;2024-02-21T09:45:33;13.38;;;5.13;;
9789;SDS011;4934;50.852;8.098;2024-02-21T09:50:40;22.90;;;5.65;;
9789;SDS011;4934;50.852;8.098;2024-02-21T09:53:08;20.80;;;5.97;;
9789;SDS011;4934;50.852;8.098;2024-02-21T09:55:36;14.60;;;4.47;;
9789;SDS011;4934;50.852;8.098;2024-02-21T09:58:05;12.30;;;4.70;;
9789;SDS011;4934;50.852;8.098;2024-02-21T10:00:30;21.75;;;5.75;;
9789;SDS011;4934;50.852;8.098;2024-02-21T10:02:56;11.90;;;5.03;;
9789;SDS011;4934;50.852;8.098;2024-02-21T10:05:23;11.55;;;5.47;;
9789;SDS011;4934;50.852;8.098;2024-02-21T10:07:50;15.95;;;4.70;;
9789;SDS011;4934;50.852;8.098;2024-02-21T10:10:16;20.27;;;5.00;;
9789;SDS011;4934;50.852;8.098;2024-02-21T10:12:50;17.58;;;5.40;;
9789;SDS011;4934;50.852;8.098;2024-02-21T10:15:19;20.58;;;6.20;;
9789;SDS011;4934;50.852;8.098;2024-02-21T10:17:46;15.60;;;4.90;;
9789;SDS011;4934;50.852;8.098;2024-02-21T10:20:12;13.38;;;5.40;;
9789;SDS011;4934;50.852;8.098;2024-02-21T10:22:40;15.68;;;5.60;;
9789;SDS011;4934;50.852;8.098;2024-02-21T10:25:12;14.63;;;5.25;;
9789;SDS011;4934;50.852;8.098;2024-02-21T10:27:38;11.82;;;5.18;;
9789;SDS011;4934;50.852;8.098;2024-02-21T10:30:05;12.77;;;5.35;;
9789;SDS011;4934;50.852;8.098;2024-02-21T10:32:59;13.90;;;5.05;;
9789;SDS011;4934;50.852;8.098;2024-02-21T10:35:30;15.63;;;5.68;;
9789;SDS011;4934;50.852;8.098;2024-02-21T10:37:57;14.45;;;5.05;;
9789;SDS011;4934;50.852;8.098;2024-02-21T10:42:57;15.13;;;4.60;;
9789;SDS011;4934;50.852;8.098;2024-02-21T10:45:31;21.15;;;4.50;;
9789;SDS011;4934;50.852;8.098;2024-02-21T10:50:50;16.98;;;5.25;;
9789;SDS011;4934;50.852;8.098;2024-02-21T10:53:41;13.15;;;5.07;;
9789;SDS011;4934;50.852;8.098;2024-02-21T10:56:32;14.52;;;4.90;;
9789;SDS011;4934;50.852;8.098;2024-02-21T10:59:02;15.93;;;5.10;;
9789;SDS011;4934;50.852;8.098;2024-02-21T11:01:29;21.90;;;5.78;;
9789;SDS011;4934;50.852;8.098;2024-02-21T11:03:57;13.68;;;4.38;;
9789;SDS011;4934;50.852;8.098;2024-02-21T11:06:25;13.05;;;4.78;;
9789;SDS011;4934;50.852;8.098;2024-02-21T11:12:02;15.35;;;5.00;;
9789;SDS011;4934;50.852;8.098;2024-02-21T11:14:31;15.65;;;4.50;;
9789;SDS011;4934;50.852;8.098;2024-02-21T11:16:57;15.75;;;4.68;;
9789;SDS011;4934;50.852;8.098;2024-02-21T11:19:27;16.23;;;4.85;;
9789;SDS011;4934;50.852;8.098;2024-02-21T11:21:54;9.45;;;4.47;;
9789;SDS011;4934;50.852;8.098;2024-02-21T11:24:25;12.82;;;4.07;;
9789;SDS011;4934;50.852;8.098;2024-02-21T11:26:53;18.30;;;4.55;;
9789;SDS011;4934;50.852;8.098;2024-02-21T11:29:25;13.30;;;5.07;;
9789;SDS011;4934;50.852;8.098;2024-02-21T11:31:51;12.20;;;4.68;;
9789;SDS011;4934;50.852;8.098;2024-02-21T11:34:17;11.77;;;4.20;;
9789;SDS011;4934;50.852;8.098;2024-02-21T11:36:50;15.10;;;4.25;;
9789;SDS011;4934;50.852;8.098;2024-02-21T11:39:26;11.90;;;3.95;;
9789;SDS011;4934;50.852;8.098;2024-02-21T11:42:04;14.88;;;4.75;;
9789;SDS011;4934;50.852;8.098;2024-02-21T11:44:33;18.08;;;5.55;;
9789;SDS011;4934;50.852;8.098;2024-02-21T11:47:07;14.45;;;3.97;;
9789;SDS011;4934;50.852;8.098;2024-02-21T11:49:46;10.02;;;3.95;;
9789;SDS011;4934;50.852;8.098;2024-02-21T11:54:40;15.18;;;3.47;;
9789;SDS011;4934;50.852;8.098;2024-02-21T11:57:06;10.27;;;3.50;;
9789;SDS011;4934;50.852;8.098;2024-02-21T11:59:32;14.20;;;5.03;;
9789;SDS011;4934;50.852;8.098;2024-02-21T12:01:59;13.13;;;3.83;;
9789;SDS011;4934;50.852;8.098;2024-02-21T12:04:25;10.32;;;4.22;;
9789;SDS011;4934;50.852;8.098;2024-02-21T12:06:52;11.52;;;3.17;;
9789;SDS011;4934;50.852;8.098;2024-02-21T12:09:19;13.48;;;4.07;;
9789;SDS011;4934;50.852;8.098;2024-02-21T12:11:45;12.50;;;3.35;;
9789;SDS011;4934;50.852;8.098;2024-02-21T12:14:15;13.90;;;3.83;;
9789;SDS011;4934;50.852;8.098;2024-02-21T12:16:41;11.50;;;3.50;;
9789;SDS011;4934;50.852;8.098;2024-02-21T12:19:09;15.73;;;3.77;;
9789;SDS011;4934;50.852;8.098;2024-02-21T12:21:35;12.95;;;4.22;;
9789;SDS011;4934;50.852;8.098;2024-02-21T12:24:13;19.38;;;4.85;;
9789;SDS011;4934;50.852;8.098;2024-02-21T12:26:52;10.23;;;3.65;;
9789;SDS011;4934;50.852;8.098;2024-02-21T12:29:19;13.70;;;3.60;;
9789;SDS011;4934;50.852;8.098;2024-02-21T12:31:56;9.93;;;3.83;;
9789;SDS011;4934;50.852;8.098;2024-02-21T12:34:23;11.27;;;3.72;;
9789;SDS011;4934;50.852;8.098;2024-02-21T12:36:52;9.85;;;3.85;;
9789;SDS011;4934;50.852;8.098;2024-02-21T12:39:18;13.52;;;3.33;;
9789;SDS011;4934;50.852;8.098;2024-02-21T12:41:43;10.02;;;3.25;;
9789;SDS011;4934;50.852;8.098;2024-02-21T12:44:09;13.45;;;3.38;;
9789;SDS011;4934;50.852;8.098;2024-02-21T12:46:38;12.50;;;2.78;;
9789;SDS011;4934;50.852;8.098;2024-02-21T12:49:07;9.25;;;2.85;;
9789;SDS011;4934;50.852;8.098;2024-02-21T12:51:34;9.68;;;2.90;;
9789;SDS011;4934;50.852;8.098;2024-02-21T12:54:00;7.57;;;3.40;;
9789;SDS011;4934;50.852;8.098;2024-02-21T12:56:26;11.65;;;3.60;;
9789;SDS011;4934;50.852;8.098;2024-02-21T12:58:57;7.05;;;2.70;;
9789;SDS011;4934;50.852;8.098;2024-02-21T13:01:23;8.57;;;2.58;;
9789;SDS011;4934;50.852;8.098;2024-02-21T13:03:48;8.80;;;2.60;;
9789;SDS011;4934;50.852;8.098;2024-02-21T13:06:14;8.43;;;2.90;;
9789;SDS011;4934;50.852;8.098;2024-02-21T13:08:40;11.18;;;2.90;;
9789;SDS011;4934;50.852;8.098;2024-02-21T13:11:06;8.20;;;2.92;;
9789;SDS011;4934;50.852;8.098;2024-02-21T13:13:32;13.00;;;3.10;;
9789;SDS011;4934;50.852;8.098;2024-02-21T13:15:58;11.60;;;2.67;;
9789;SDS011;4934;50.852;8.098;2024-02-21T13:18:24;10.82;;;2.55;;
9789;SDS011;4934;50.852;8.098;2024-02-21T13:20:49;12.40;;;2.72;;
9789;SDS011;4934;50.852;8.098;2024-02-21T13:23:15;9.25;;;2.72;;
9789;SDS011;4934;50.852;8.098;2024-02-21T13:25:43;8.98;;;2.75;;
9789;SDS011;4934;50.852;8.098;2024-02-21T13:28:12;8.88;;;2.25;;
9789;SDS011;4934;50.852;8.098;2024-02-21T13:30:38;7.03;;;2.53;;
9789;SDS011;4934;50.852;8.098;2024-02-21T13:33:05;11.23;;;2.08;;
9789;SDS011;4934;50.852;8.098;2024-02-21T13:35:32;11.00;;;2.05;;
9789;SDS011;4934;50.852;8.098;2024-02-21T13:37:57;11.80;;;2.70;;
9789;SDS011;4934;50.852;8.098;2024-02-21T13:40:23;8.85;;;2.38;;
9789;SDS011;4934;50.852;8.098;2024-02-21T13:42:50;6.25;;;2.60;;
9789;SDS011;4934;50.852;8.098;2024-02-21T13:45:16;12.95;;;2.30;;
9789;SDS011;4934;50.852;8.098;2024-02-21T13:47:43;17.27;;;2.25;;
9789;SDS011;4934;50.852;8.098;2024-02-21T13:50:08;8.82;;;1.95;;
9789;SDS011;4934;50.852;8.098;2024-02-21T13:52:37;9.90;;;2.50;;
9789;SDS011;4934;50.852;8.098;2024-02-21T13:55:03;8.10;;;2.25;;
9789;SDS011;4934;50.852;8.098;2024-02-21T13:57:28;9.52;;;2.20;;
9789;SDS011;4934;50.852;8.098;2024-02-21T13:59:54;7.40;;;1.92;;
9789;SDS011;4934;50.852;8.098;2024-02-21T14:02:20;14.57;;;2.70;;
9789;SDS011;4934;50.852;8.098;2024-02-21T14:04:46;11.02;;;2.60;;
9789;SDS011;4934;50.852;8.098;2024-02-21T14:07:12;5.97;;;2.25;;
9789;SDS011;4934;50.852;8.098;2024-02-21T14:09:37;7.18;;;2.05;;
9789;SDS011;4934;50.852;8.098;2024-02-21T14:12:03;11.20;;;2.40;;
9789;SDS011;4934;50.852;8.098;2024-02-21T14:14:33;7.60;;;2.30;;
9789;SDS011;4934;50.852;8.098;2024-02-21T14:17:00;14.02;;;2.28;;
9789;SDS011;4934;50.852;8.098;2024-02-21T14:19:25;14.10;;;2.45;;
9789;SDS011;4934;50.852;8.098;2024-02-21T14:21:52;6.35;;;2.15;;
9789;SDS011;4934;50.852;8.098;2024-02-21T14:24:18;7.50;;;2.08;;
9789;SDS011;4934;50.852;8.098;2024-02-21T14:26:44;10.80;;;2.28;;
9789;SDS011;4934;50.852;8.098;2024-02-21T14:29:10;11.38;;;2.67;;
9789;SDS011;4934;50.852;8.098;2024-02-21T14:31:36;11.93;;;4.25;;
9789;SDS011;4934;50.852;8.098;2024-02-21T14:34:01;5.20;;;2.40;;
9789;SDS011;4934;50.852;8.098;2024-02-21T14:36:27;7.25;;;2.33;;
9789;SDS011;4934;50.852;8.098;2024-02-21T14:38:53;7.50;;;2.40;;
9789;SDS011;4934;50.852;8.098;2024-02-21T14:41:19;11.23;;;2.72;;
9789;SDS011;4934;50.852;8.098;2024-02-21T14:43:44;8.30;;;2.63;;
9789;SDS011;4934;50.852;8.098;2024-02-21T14:46:11;8.63;;;2.45;;
9789;SDS011;4934;50.852;8.098;2024-02-21T14:48:37;10.63;;;2.00;;
9789;SDS011;4934;50.852;8.098;2024-02-21T14:51:03;8.20;;;1.80;;
9789;SDS011;4934;50.852;8.098;2024-02-21T14:53:29;10.20;;;2.33;;
9789;SDS011;4934;50.852;8.098;2024-02-21T14:55:55;8.18;;;1.83;;
9789;SDS011;4934;50.852;8.098;2024-02-21T14:58:22;7.88;;;2.25;;
9789;SDS011;4934;50.852;8.098;2024-02-21T15:00:49;7.10;;;1.73;;
9789;SDS011;4934;50.852;8.098;2024-02-21T15:03:16;10.13;;;2.40;;
9789;SDS011;4934;50.852;8.098;2024-02-21T15:05:45;6.38;;;1.70;;
9789;SDS011;4934;50.852;8.098;2024-02-21T15:08:11;9.13;;;1.75;;
9789;SDS011;4934;50.852;8.098;2024-02-21T15:10:37;4.43;;;1.63;;
9789;SDS011;4934;50.852;8.098;2024-02-21T15:13:03;8.25;;;2.03;;
9789;SDS011;4934;50.852;8.098;2024-02-21T15:15:31;8.10;;;1.90;;
9789;SDS011;4934;50.852;8.098;2024-02-21T15:17:56;11.70;;;1.80;;
9789;SDS011;4934;50.852;8.098;2024-02-21T15:20:23;7.80;;;1.77;;
9789;SDS011;4934;50.852;8.098;2024-02-21T15:22:52;8.50;;;1.95;;
9789;SDS011;4934;50.852;8.098;2024-02-21T15:25:18;3.80;;;1.33;;
9789;SDS011;4934;50.852;8.098;2024-02-21T15:27:44;6.97;;;1.60;;